Flight Track Log - Related Links

Times and Time Zones

All times are in EDT time to prevent confusion due to time zone crossing. See the XOJ552 flight status page for this flight to view local times or setup timezone preferences in your user account.


Time Position Orientation Groundspeed Altitude Reporting Facility
EDT Latitude Longitude Course Direction KTS MPH feet Rate Location/Type
Sat 01:41:35 PM 37.7878 -80.4822 222° Southwest 395 455 8,700  Level Washington Center
Sat 01:42:36 PM 37.7203 -80.5014 193° South 308 354 13,200 4,387 Climbing Washington Center
Sat 01:43:00 PM 37.8321 -80.4313 224° Southwest  Level FlightAware Approximate
Sat 01:43:34 PM 37.6439 -80.5306 197° South 296 341 17,400  Level Washington Center
Sat 01:45:46 PM 37.4567 -80.5883 194° South 306 352 26,000 2,688 Climbing Atlanta Center
Sat 01:46:46 PM 37.3619 -80.6236 196° South 332 382 26,000  Level Atlanta Center
Sat 01:47:46 PM 37.2628 -80.6542 194° South 355 409 26,000  Level Atlanta Center
Sat 01:48:46 PM 37.1617 -80.6897 196° South 368 423 26,000 250 Level Atlanta Center
Sat 01:49:46 PM 37.0728 -80.7247 197° South 378 435 26,500 1,450 Climbing Atlanta Center
Sat 01:50:46 PM 36.9764 -80.7808 205° Southwest 378 435 28,900 1,450 Climbing Atlanta Center
Sat 01:51:46 PM 36.8778 -80.8392 205° Southwest 390 449 29,400 1,850 Climbing Atlanta Center
Sat 01:52:46 PM 36.7711 -80.9006 205° Southwest 395 455 32,600 2,300 Climbing Atlanta Center
Sat 01:53:46 PM 36.6828 -80.9583 208° Southwest 381 438 34,000 700 Climbing Atlanta Center
Sat 01:54:46 PM 36.5903 -81.0111 205° Southwest 370 426 34,000 1,350 Level Atlanta Center
Sat 01:55:46 PM 36.5000 -81.0661 206° Southwest 364 419 36,700 2,450 Climbing Atlanta Center
Sat 01:56:46 PM 36.4156 -81.1183 206° Southwest 345 397 38,900 1,200 Climbing Atlanta Center
Sat 01:57:46 PM 36.3375 -81.1650 206° Southwest 340 391 39,100 550 Climbing Atlanta Center
Sat 01:58:46 PM 36.2428 -81.2225 206° Southwest 356 410 40,000 800 Climbing Atlanta Center
Sat 01:59:46 PM 36.1503 -81.2769 205° Southwest 369 425 40,700 650 Climbing Atlanta Center
Sat 02:00:46 PM 36.0514 -81.3369 206° Southwest 386 444 41,300 650 Climbing Atlanta Center
Sat 02:01:46 PM 35.9528 -81.3967 206° Southwest 392 451 42,000 650 Climbing Atlanta Center
Sat 02:02:46 PM 35.8539 -81.4561 206° Southwest 397 457 42,600 700 Climbing Atlanta Center
Sat 02:03:46 PM 35.7508 -81.5183 206° Southwest 397 457 43,400 750 Climbing Atlanta Center
Sat 02:04:46 PM 35.6475 -81.5753 204° Southwest 402 463 44,100 550 Climbing Atlanta Center
Sat 02:05:46 PM 35.5444 -81.6369 206° Southwest 402 463 44,500 450 Climbing Atlanta Center
Sat 02:06:46 PM 35.4414 -81.6961 205° Southwest 402 463 45,000 250 Climbing Atlanta Center
Sat 02:07:46 PM 35.3383 -81.7575 206° Southwest 407 468 45,000  Level Atlanta Center
Sat 02:08:46 PM 35.2328 -81.8164 205° Southwest 414 476 45,000  Level Atlanta Center
Sat 02:09:46 PM 35.1192 -81.8831 206° Southwest 420 483 45,000  Level Atlanta Center
Sat 02:10:46 PM 35.0117 -81.9364 202° Southwest 420 483 45,000  Level Atlanta Center
Sat 02:11:46 PM 34.9075 -81.9467 185° South 420 483 45,000  Level Atlanta Center
Sat 02:12:46 PM 34.7911 -81.9697 189° South 420 483 45,000  Level Atlanta Center
Sat 02:13:46 PM 34.6725 -81.9906 188° South 425 489 45,000  Level Atlanta Center
Sat 02:14:46 PM 34.5561 -82.0108 188° South 425 489 45,000  Level Atlanta Center
Sat 02:15:46 PM 34.4375 -82.0339 189° South 425 489 45,000  Level Atlanta Center
Sat 02:16:46 PM 34.3208 -82.0544 188° South 425 489 45,000  Level Atlanta Center
Sat 02:17:46 PM 34.2003 -82.0772 189° South 430 495 45,000  Level Atlanta Center
Sat 02:18:46 PM 34.0836 -82.0950 187° South 430 495 45,000  Level Atlanta Center
Sat 02:19:46 PM 33.9628 -82.1153 188° South 430 495 45,000  Level Atlanta Center
Sat 02:20:46 PM 33.8422 -82.1356 188° South 430 495 45,000  Level Atlanta Center
Sat 02:21:46 PM 33.7172 -82.1533 187° South 442 509 45,000  Level Atlanta Center
Sat 02:22:46 PM 33.5919 -82.1486 178° South 448 516 45,000  Level Atlanta Center
Sat 02:23:46 PM 33.4642 -82.1339 175° South 453 521 45,000  Level Atlanta Center
Sat 02:24:46 PM 33.3347 -82.1194 175° South 465 535 45,000  Level Atlanta Center
Sat 02:25:46 PM 33.2072 -82.1047 174° South 465 535 45,000  Level Atlanta Center
Sat 02:27:26 PM 32.9803 -82.0778 174° South 455 524 45,000  Level Jacksonville Center
Sat 02:28:26 PM 32.8528 -82.0642 175° South 467 537 45,000  Level Jacksonville Center
Sat 02:29:26 PM 32.7233 -82.0506 175° South 467 537 45,000  Level Jacksonville Center
Sat 02:30:26 PM 32.5936 -82.0369 175° South 467 537 45,000  Level Jacksonville Center
Sat 02:31:26 PM 32.4661 -82.0208 174° South 467 537 45,000  Level Jacksonville Center
Sat 02:32:26 PM 32.3514 -82.0097 175° South 455 524 45,000  Level Jacksonville Center
Sat 02:33:26 PM 32.2092 -81.9964 175° South 467 537 45,000  Level Jacksonville Center
Sat 02:34:26 PM 32.0797 -81.9806 174° South 467 537 45,000  Level Jacksonville Center
Sat 02:35:26 PM 31.9647 -81.9717 176° South 462 532 45,000  Level Jacksonville Center
Sat 02:36:26 PM 31.8272 -81.9831 184° South 457 526 45,000  Level Jacksonville Center
Sat 02:37:26 PM 31.7125 -81.9939 185° South 457 526 45,000  Level Jacksonville Center
Sat 02:38:26 PM 31.5747 -82.0072 185° South 462 532 45,000  Level Jacksonville Center
Sat 02:39:26 PM 31.4475 -82.0233 186° South 462 532 45,000 -50 Level Jacksonville Center
Sat 02:40:26 PM 31.3200 -82.0317 183° South 462 532 44,900  Descending Jacksonville Center
Sat 02:41:26 PM 31.1928 -82.0425 184° South 462 532 45,000 50 Climbing Jacksonville Center
Sat 02:42:26 PM 31.0656 -82.0558 185° South 462 532 45,000  Level Jacksonville Center
Sat 02:43:26 PM 30.9403 -82.0642 183° South 462 532 45,000  Level Jacksonville Center
Sat 02:44:26 PM 30.8150 -82.0775 185° South 462 532 45,000  Level Jacksonville Center
Sat 02:45:26 PM 30.6858 -82.0906 185° South 462 532 45,000 -50 Level Jacksonville Center
Sat 02:46:26 PM 30.5606 -82.1014 184° South 462 532 44,900  Descending Jacksonville Center
Sat 02:47:26 PM 30.4478 -82.1047 181° South 456 525 45,000 50 Climbing Jacksonville Center
Sat 02:48:26 PM 30.3228 -82.1297 190° South 461 531 45,000  Level Jacksonville Center
Sat 02:49:26 PM 30.2061 -82.1764 199° South 455 524 45,000  Level Jacksonville Center
Sat 02:50:26 PM 30.0894 -82.2228 199° South 449 517 45,000  Level Jacksonville Center
Sat 02:51:26 PM 29.9747 -82.2764 202° Southwest 443 510 45,000  Level Jacksonville Center
Sat 02:52:26 PM 29.8517 -82.2892 185° South 448 516 45,000  Level Jacksonville Center
Sat 02:53:26 PM 29.7322 -82.2086 150° Southeast 420 483 45,000  Level Jacksonville Center
Sat 02:54:26 PM 29.6275 -82.1256 145° Southeast 420 483 45,000  Level Jacksonville Center
Sat 02:55:26 PM 29.5042 -82.1050 172° South 439 505 45,000  Level Jacksonville Center
Sat 02:56:26 PM 29.3875 -82.1536 200° South 420 483 45,000  Level Jacksonville Center
Sat 02:57:26 PM 29.3003 -82.2450 222° Southwest 411 473 45,000  Level Jacksonville Center
Sat 02:58:26 PM 29.2131 -82.3431 224° Southwest 425 489 45,000  Level Jacksonville Center
Sat 02:59:26 PM 29.1258 -82.4386 224° Southwest 431 496 45,000 -50 Level Jacksonville Center
Sat 03:00:26 PM 29.0386 -82.5364 224° Southwest 442 509 44,900 -600 Descending Jacksonville Center
Sat 03:01:26 PM 28.9511 -82.6269 222° Southwest 442 509 43,800 -1,150 Descending Jacksonville Center
Sat 03:02:26 PM 28.8594 -82.7194 221° Southwest 442 509 42,600 -1,450 Descending Jacksonville Center
Sat 03:03:26 PM 28.7425 -82.7672 200° South 442 509 40,900 -1,600 Descending Jacksonville Center
Sat 03:04:26 PM 28.6194 -82.7767 184° South 431 496 39,400 -1,550 Descending Jacksonville Center
Sat 03:05:26 PM 28.4881 -82.7864 184° South 453 521 37,800 -1,600 Descending Jacksonville Center
Sat 03:06:26 PM 28.3586 -82.7911 182° South 469 540 36,200 -1,031 Descending Jacksonville Center
Sat 03:08:09 PM 28.1506 -82.7992 182° South 451 519 35,000 -515 Descending Miami Center
Sat 03:09:09 PM 28.0522 -82.8058 183° South 446 513 34,800 -650 Descending Miami Center
Sat 03:10:09 PM 27.9125 -82.8078 181° South 451 519 33,700 -1,250 Descending Miami Center
Sat 03:11:09 PM 27.7831 -82.8128 182° South 457 526 32,300 -1,650 Descending Miami Center
Sat 03:12:09 PM 27.6450 -82.8219 183° South 465 535 30,400 -1,800 Descending Miami Center
Sat 03:13:09 PM 27.5175 -82.8247 181° South 465 535 28,700 -1,650 Descending Miami Center
Sat 03:14:09 PM 27.4006 -82.7764 160° South 456 525 27,100 -1,900 Descending Miami Center
Sat 03:15:09 PM 27.3006 -82.7222 154° Southeast 440 506 24,900 -2,300 Descending Miami Center
Sat 03:16:09 PM 27.1797 -82.6625 156° South 440 506 22,500 -2,250 Descending Miami Center
Sat 03:17:09 PM 27.0778 -82.6083 155° Southeast 424 488 20,400 -2,100 Descending Miami Center
Sat 03:18:09 PM 26.9817 -82.5572 155° Southeast 404 465 18,300 -2,050 Descending Miami Center
Sat 03:19:09 PM 26.8856 -82.5058 155° Southeast 391 450 16,300 -2,000 Descending Miami Center
Sat 03:20:09 PM 26.7894 -82.4569 156° South 391 450 14,300 -2,000 Descending Miami Center
Sat 03:21:09 PM 26.6953 -82.4061 154° Southeast 384 442 12,300 -1,750 Descending Miami Center
Sat 03:22:09 PM 26.6136 -82.3581 152° Southeast 361 415 10,800 -1,300 Descending Miami Center
Sat 03:23:09 PM 26.5444 -82.3086 147° Southeast 326 375 9,700 -1,100 Descending Miami Center
Sat 03:24:09 PM 26.4775 -82.2614 148° Southeast 298 343 8,600 -1,100 Descending Miami Center
Sat 03:25:09 PM 26.4192 -82.2031 138° Southeast 286 329 7,500 -800 Descending Miami Center
Sat 03:26:09 PM 26.3867 -82.1181 113° Southeast 273 314 7,000 -250 Descending Miami Center
Sat 03:27:09 PM 26.3542 -82.0333 113° Southeast 280 322 7,000  Level Miami Center
Sat 03:28:09 PM 26.3214 -81.9578 116° Southeast 284 327 7,000  Level Miami Center
Sat 03:30:00 PM 26.1764 -81.8015 138° Southeast  Level Estimated
Sat 03:37:00 PM 26.1524 -81.7756 66° East  Level Estimated
Sat 03:38:00 PM 26.1524 -81.7756 66° East  Level Estimated
Sat 03:39:00 PM 26.1524 -81.7756 66° East  Level Estimated
Sat 03:40:00 PM 26.1524 -81.7756 66° East  Level Estimated
Sat 03:41:00 PM 26.1524 -81.7756 66° East  Level Estimated
Sat 03:42:00 PM 26.1524 -81.7756 66° East  Level Estimated

Login

Don't have an account? Register now (free) for customized features, flight alerts, and more!